Terminal Aerodrome Forecast
Issued by NWS

Home | Current Version | Previous Version | Graphics & Text | Print | Product List | Glossary On
Versions: 1 2 3 4 5 6 7 8 9 10 11 12 13 14 15 16 17 18 19 20 21
000
FTUS43 KFGF 222300
TAFBJI
TAF
KBJI 222326Z 2300/2324 14006KT P6SM SCT250
     FM230200 17006KT 5SM BR BKN008
      TEMPO 2302/2306 2SM BR BKN004
     FM230600 19006KT 2SM BR BKN004
     FM231600 24006KT P6SM BKN070
     FM232300 31015KT P6SM BKN015=

USA.gov is the U.S. government's official web portal to all federal, state and local government web resources and services.